createdAt,value
2022-12-28T00:00:41.474Z,101428.16
2022-12-28T00:04:43.056Z,101434.25
2022-12-28T00:08:44.990Z,101431.28
2022-12-28T00:12:46.513Z,101424.28
2022-12-28T00:16:48.088Z,101414.69
2022-12-28T00:21:00.304Z,101404.13
2022-12-28T00:25:01.947Z,101393.69
2022-12-28T00:29:05.502Z,101388.38
2022-12-28T00:33:07.508Z,101390.03
2022-12-28T00:37:12.962Z,101387.72
2022-12-28T00:41:14.924Z,101377.16
2022-12-28T00:45:17.785Z,101370.00
2022-12-28T00:49:19.381Z,101365.38
2022-12-28T00:53:21.014Z,101352.94
2022-12-28T00:57:22.603Z,101338.72
2022-12-28T01:01:27.218Z,101334.66
2022-12-28T01:05:29.037Z,101322.94
2022-12-28T01:09:30.571Z,101313.81
2022-12-28T01:13:32.221Z,101312.28
2022-12-28T01:17:33.798Z,101309.84
2022-12-28T01:21:36.911Z,101301.13
2022-12-28T01:25:38.467Z,101297.72
2022-12-28T01:29:40.302Z,101292.97
2022-12-28T01:33:42.900Z,101283.25
2022-12-28T01:37:44.453Z,101276.00
2022-12-28T01:41:46.630Z,101277.19
2022-12-28T01:45:52.810Z,101275.03
2022-12-28T01:50:05.544Z,101261.66
2022-12-28T01:54:07.114Z,101254.03
2022-12-28T01:58:13.867Z,101246.34
2022-12-28T02:02:16.639Z,101241.47
2022-12-28T02:06:18.402Z,101220.28
2022-12-28T02:10:41.029Z,101218.63
2022-12-28T02:14:44.377Z,101225.47
2022-12-28T02:18:47.420Z,101255.91
2022-12-28T02:23:08.786Z,101241.81
2022-12-28T02:27:23.884Z,101235.06
2022-12-28T02:31:40.509Z,101221.78
2022-12-28T02:35:51.644Z,101218.59
2022-12-28T02:39:59.949Z,101221.25
2022-12-28T02:44:01.985Z,101205.34
2022-12-28T02:48:26.858Z,101192.53
2022-12-28T02:52:48.311Z,101196.53
2022-12-28T02:57:08.957Z,101182.19
2022-12-28T03:01:35.456Z,101191.00
2022-12-28T03:06:06.801Z,101177.63
2022-12-28T03:10:18.627Z,101185.47
2022-12-28T03:14:26.502Z,101179.72
2022-12-28T03:18:48.880Z,101167.88
2022-12-28T03:23:10.354Z,101167.56
2022-12-28T03:27:34.284Z,101167.69
2022-12-28T03:31:37.355Z,101159.94
2022-12-28T03:36:01.514Z,101148.25
2022-12-28T03:40:17.305Z,101150.25
2022-12-28T03:44:26.705Z,101142.03
2022-12-28T03:48:31.614Z,101140.47
2022-12-28T03:52:33.444Z,101122.91
2022-12-28T03:56:45.913Z,101101.59
2022-12-28T04:00:47.479Z,101101.13
2022-12-28T04:04:49.453Z,101104.75
2022-12-28T04:08:51.165Z,101092.28
2022-12-28T04:12:56.805Z,101088.06
2022-12-28T04:17:06.887Z,101079.00
2022-12-28T04:21:09.508Z,101085.13
2022-12-28T04:25:13.273Z,101087.00
2022-12-28T04:29:15.179Z,101090.66
2022-12-28T04:33:37.600Z,101078.81
2022-12-28T04:37:39.175Z,101086.72
2022-12-28T04:41:41.043Z,101078.34
2022-12-28T04:45:42.596Z,101066.50
2022-12-28T04:49:44.137Z,101066.50
2022-12-28T04:53:45.778Z,101061.44
2022-12-28T04:57:47.575Z,101061.63
2022-12-28T05:01:49.242Z,101064.97
2022-12-28T05:05:50.840Z,101068.56
2022-12-28T05:09:52.464Z,101065.34
2022-12-28T05:13:54.158Z,101073.06
2022-12-28T05:17:56.253Z,101055.25
2022-12-28T05:21:57.887Z,101053.72
2022-12-28T05:25:59.519Z,101043.75
2022-12-28T05:30:01.076Z,101033.69
2022-12-28T05:34:02.802Z,101029.59
2022-12-28T05:38:04.574Z,101028.00
2022-12-28T05:42:06.119Z,101019.63
2022-12-28T05:46:11.450Z,101018.75
2022-12-28T05:50:13.019Z,101022.25
2022-12-28T05:54:14.620Z,101016.09
2022-12-28T05:58:16.119Z,101016.41
2022-12-28T06:02:23.053Z,101016.97
2022-12-28T06:06:26.579Z,101023.63
2022-12-28T06:10:28.292Z,101015.09
2022-12-28T06:14:29.826Z,101009.25
2022-12-28T06:18:31.473Z,101011.00
2022-12-28T06:22:33.142Z,101016.88
2022-12-28T06:26:36.743Z,101015.72
2022-12-28T06:30:38.249Z,100999.41
2022-12-28T06:34:39.817Z,101006.91
2022-12-28T06:38:41.724Z,101004.28
2022-12-28T06:42:43.399Z,100991.47
2022-12-28T06:46:45.071Z,100992.47
2022-12-28T06:50:57.948Z,100981.50
2022-12-28T06:54:59.483Z,100980.75
2022-12-28T06:59:03.797Z,100980.03
2022-12-28T07:03:05.766Z,100974.00
2022-12-28T07:07:09.202Z,100971.25
2022-12-28T07:11:19.463Z,100982.28
2022-12-28T07:15:21.024Z,100977.22
2022-12-28T07:19:22.573Z,100977.78
2022-12-28T07:23:25.692Z,100975.75
2022-12-28T07:27:27.194Z,100984.53
2022-12-28T07:31:41.737Z,100971.16
2022-12-28T07:35:46.310Z,100966.75
2022-12-28T07:39:47.814Z,100961.25
2022-12-28T07:43:50.277Z,100962.25
2022-12-28T07:47:51.839Z,100969.19
2022-12-28T07:51:53.639Z,100956.09
2022-12-28T07:55:59.351Z,100940.16
2022-12-28T08:00:00.978Z,100946.66
2022-12-28T08:04:05.002Z,100944.59
2022-12-28T08:08:06.563Z,100939.19
2022-12-28T08:12:08.173Z,100936.94
2022-12-28T08:16:11.930Z,100932.63
2022-12-28T08:20:13.550Z,100934.31
2022-12-28T08:24:17.381Z,100931.88
2022-12-28T08:28:18.916Z,100926.34
2022-12-28T08:32:20.452Z,100923.09
2022-12-28T08:36:22.353Z,100915.31
2022-12-28T08:40:27.605Z,100919.81
2022-12-28T08:44:29.221Z,100910.50
2022-12-28T08:48:31.795Z,100912.94
2022-12-28T08:52:33.339Z,100917.66
2022-12-28T08:56:37.387Z,100906.63
2022-12-28T09:00:39.070Z,100920.31
2022-12-28T09:04:41.091Z,100918.03
2022-12-28T09:08:56.793Z,100920.91
2022-12-28T09:13:04.456Z,100909.34
2022-12-28T09:17:06.092Z,100906.47
2022-12-28T09:21:10.422Z,100907.50
2022-12-28T09:25:12.020Z,100910.22
2022-12-28T09:29:14.156Z,100915.19
2022-12-28T09:33:45.425Z,100919.03
2022-12-28T09:37:56.107Z,100911.59
2022-12-28T09:42:11.466Z,100910.63
2022-12-28T09:46:16.356Z,100905.97
2022-12-28T09:50:21.734Z,100894.47
2022-12-28T09:54:23.474Z,100893.00
2022-12-28T09:58:25.114Z,100899.25
2022-12-28T10:02:32.986Z,100900.28
2022-12-28T10:06:36.769Z,100882.00
2022-12-28T10:10:43.965Z,100883.22
2022-12-28T10:14:49.297Z,100878.78
2022-12-28T10:18:50.930Z,100886.34
2022-12-28T10:22:56.395Z,100875.34
2022-12-28T10:26:59.805Z,100861.72
2022-12-28T10:31:10.481Z,100856.59
2022-12-28T10:35:23.979Z,100849.00
2022-12-28T10:39:28.782Z,100837.94
2022-12-28T10:43:37.066Z,100836.75
2022-12-28T10:47:44.522Z,100828.00
2022-12-28T10:52:32.955Z,100821.19
2022-12-28T10:56:47.974Z,100811.25
2022-12-28T11:01:00.677Z,100792.97
2022-12-28T11:05:04.592Z,100792.31
2022-12-28T11:09:23.082Z,100781.44
2022-12-28T11:13:24.671Z,100768.56
2022-12-28T11:17:28.531Z,100755.72
2022-12-28T11:21:31.544Z,100753.78
2022-12-28T11:25:35.285Z,100751.75
2022-12-28T11:29:47.700Z,100745.38
2022-12-28T11:33:54.392Z,100744.81
2022-12-28T11:38:00.464Z,100743.06
2022-12-28T11:42:37.096Z,100724.34
2022-12-28T11:46:23.929Z,100732.16
2022-12-28T11:50:34.643Z,100726.38
2022-12-28T11:54:39.499Z,100722.19
2022-12-28T11:58:41.008Z,100702.03
2022-12-28T12:02:51.330Z,100708.00
2022-12-28T12:06:53.467Z,100692.09
2022-12-28T12:11:21.759Z,100693.19
2022-12-28T12:15:39.144Z,100675.28
2022-12-28T12:19:47.904Z,100668.56
2022-12-28T12:23:53.931Z,100662.84
2022-12-28T12:27:59.216Z,100664.63
2022-12-28T12:32:19.387Z,100657.63
2022-12-28T12:37:06.114Z,100661.75
2022-12-28T12:41:19.512Z,100649.00
2022-12-28T12:45:58.712Z,100644.81
2022-12-28T12:50:29.188Z,100634.16
2022-12-28T12:54:52.350Z,100624.91
2022-12-28T12:59:21.365Z,100622.41
2022-12-28T13:03:54.101Z,100625.75
2022-12-28T13:08:00.468Z,100610.25
2022-12-28T13:12:02.775Z,100605.75
2022-12-28T13:16:09.938Z,100599.56
2022-12-28T13:20:20.934Z,100597.56
2022-12-28T13:24:27.536Z,100593.94
2022-12-28T13:28:35.735Z,100597.13
2022-12-28T13:32:38.589Z,100588.56
2022-12-28T13:36:59.875Z,100579.09
2022-12-28T13:41:03.100Z,100576.44
2022-12-28T13:45:09.828Z,100566.09
2022-12-28T13:49:13.025Z,100571.13
2022-12-28T13:53:20.600Z,100562.53
2022-12-28T14:01:50.160Z,100554.22
2022-12-28T14:05:55.168Z,100554.22
2022-12-28T14:09:57.175Z,100546.47
2022-12-28T14:13:58.843Z,100537.06
2022-12-28T14:18:00.900Z,100538.63
2022-12-28T14:22:02.756Z,100528.25
2022-12-28T14:26:20.386Z,100517.38
2022-12-28T14:30:28.469Z,100512.56
2022-12-28T14:34:33.315Z,100503.19
2022-12-28T14:38:39.924Z,100505.75
2022-12-28T14:42:41.734Z,100500.56
2022-12-28T14:46:43.504Z,100496.91
2022-12-28T14:50:57.069Z,100496.72
2022-12-28T14:54:58.733Z,100496.59
2022-12-28T14:59:01.367Z,100484.50
2022-12-28T15:03:20.636Z,100502.09
2022-12-28T15:07:22.238Z,100490.72
2022-12-28T15:11:25.974Z,100490.34
2022-12-28T15:15:27.662Z,100486.44
2022-12-28T15:19:29.291Z,100475.75
2022-12-28T15:23:31.016Z,100468.84
2022-12-28T15:27:32.633Z,100465.34
2022-12-28T15:31:34.223Z,100461.91
2022-12-28T15:35:35.986Z,100452.44
2022-12-28T15:39:37.649Z,100455.78
2022-12-28T15:43:39.325Z,100452.25
2022-12-28T15:47:40.953Z,100445.31
2022-12-28T15:51:43.173Z,100445.28
2022-12-28T15:55:44.771Z,100449.38
2022-12-28T15:59:46.462Z,100452.75
2022-12-28T16:03:52.516Z,100440.72
2022-12-28T16:07:54.154Z,100438.84
2022-12-28T16:11:55.824Z,100437.03
2022-12-28T16:16:03.640Z,100418.13
2022-12-28T16:20:05.726Z,100429.13
2022-12-28T16:24:07.604Z,100432.44
2022-12-28T16:28:09.160Z,100416.19
2022-12-28T16:32:10.738Z,100427.38
2022-12-28T16:36:12.750Z,100425.69
2022-12-28T16:40:14.447Z,100419.78
2022-12-28T16:44:21.385Z,100429.06
2022-12-28T16:48:23.059Z,100423.00
2022-12-28T16:52:24.581Z,100423.69
2022-12-28T16:56:26.176Z,100413.34
2022-12-28T17:00:27.695Z,100424.44
2022-12-28T17:04:29.286Z,100417.56
2022-12-28T17:08:31.197Z,100427.94
2022-12-28T17:12:32.817Z,100420.41
2022-12-28T17:16:34.624Z,100416.94
2022-12-28T17:20:37.319Z,100403.25
2022-12-28T17:24:39.119Z,100399.69
2022-12-28T17:28:40.707Z,100397.00
2022-12-28T17:32:42.315Z,100388.47
2022-12-28T17:36:43.896Z,100391.78
2022-12-28T17:40:45.457Z,100379.88
2022-12-28T17:44:48.427Z,100367.06
2022-12-28T17:48:55.185Z,100363.56
2022-12-28T17:52:58.658Z,100361.09
2022-12-28T17:57:00.412Z,100344.09
2022-12-28T18:01:02.627Z,100330.47
2022-12-28T18:05:04.626Z,100333.06
2022-12-28T18:09:06.244Z,100324.59
2022-12-28T18:13:07.995Z,100315.19
2022-12-28T18:17:09.622Z,100304.94
2022-12-28T18:21:20.796Z,100298.06
2022-12-28T18:25:22.993Z,100282.63
2022-12-28T18:29:24.708Z,100276.09
2022-12-28T18:33:26.411Z,100272.47
2022-12-28T18:37:28.038Z,100269.84
2022-12-28T18:41:33.933Z,100255.59
2022-12-28T18:45:36.026Z,100256.31
2022-12-28T18:49:40.217Z,100252.81
2022-12-28T18:53:45.946Z,100257.09
2022-12-28T18:57:47.559Z,100257.91
2022-12-28T19:02:06.455Z,100249.28
2022-12-28T19:06:09.479Z,100256.94
2022-12-28T19:10:13.045Z,100249.19
2022-12-28T19:14:15.795Z,100241.22
2022-12-28T19:18:17.358Z,100248.75
2022-12-28T19:22:18.938Z,100245.97
2022-12-28T19:26:21.279Z,100245.09
2022-12-28T19:30:23.607Z,100237.28
2022-12-28T19:34:25.183Z,100231.03
2022-12-28T19:38:27.392Z,100223.88
2022-12-28T19:42:29.157Z,100216.00
2022-12-28T19:46:31.486Z,100224.31
2022-12-28T19:50:33.220Z,100209.81
2022-12-28T19:54:34.888Z,100220.88
2022-12-28T19:58:38.966Z,100214.09
2022-12-28T20:02:40.687Z,100202.16
2022-12-28T20:06:43.685Z,100202.25
2022-12-28T20:10:45.206Z,100195.47
2022-12-28T20:14:46.870Z,100189.66
2022-12-28T20:18:49.754Z,100193.22
2022-12-28T20:22:51.278Z,100182.09
2022-12-28T20:26:57.964Z,100176.03
2022-12-28T20:31:05.330Z,100178.72
2022-12-28T20:35:07.141Z,100171.50
2022-12-28T20:39:08.800Z,100174.41
2022-12-28T20:43:25.181Z,100163.44
2022-12-28T20:47:27.041Z,100161.94
2022-12-28T20:51:29.029Z,100151.84
2022-12-28T20:55:30.613Z,100156.31
2022-12-28T20:59:33.469Z,100149.56
2022-12-28T21:03:35.139Z,100131.78
2022-12-28T21:07:36.765Z,100129.09
2022-12-28T21:11:38.397Z,100125.56
2022-12-28T21:15:40.860Z,100120.47
2022-12-28T21:19:42.434Z,100119.84
2022-12-28T21:23:44.404Z,100118.25
2022-12-28T21:27:46.011Z,100125.19
2022-12-28T21:31:47.752Z,100114.34
2022-12-28T21:36:00.214Z,100117.84
2022-12-28T21:40:07.071Z,100114.50
2022-12-28T21:44:11.657Z,100110.38
2022-12-28T21:48:13.199Z,100112.97
2022-12-28T21:52:14.737Z,100119.88
2022-12-28T21:56:16.276Z,100109.75
2022-12-28T22:00:36.779Z,100108.09
2022-12-28T22:05:02.116Z,100103.88
2022-12-28T22:09:22.924Z,100104.91
2022-12-28T22:13:24.524Z,100097.28
2022-12-28T22:17:26.042Z,100098.22
2022-12-28T22:21:28.356Z,100097.50
2022-12-28T22:25:30.922Z,100076.28
2022-12-28T22:29:32.599Z,100069.38
2022-12-28T22:33:34.446Z,100072.78
2022-12-28T22:37:36.461Z,100077.88
2022-12-28T22:41:38.041Z,100085.63
2022-12-28T22:45:39.812Z,100073.66
2022-12-28T22:49:41.443Z,100065.94
2022-12-28T22:53:43.617Z,100064.25
2022-12-28T22:57:45.275Z,100066.06
2022-12-28T23:01:48.282Z,100054.44
2022-12-28T23:05:52.925Z,100048.78
2022-12-28T23:09:54.596Z,100057.59
2022-12-28T23:14:17.750Z,100052.81
2022-12-28T23:18:37.572Z,100053.06
2022-12-28T23:23:11.224Z,100034.28
2022-12-28T23:27:21.619Z,100039.53
2022-12-28T23:31:23.225Z,100028.41
2022-12-28T23:35:26.268Z,100028.41
2022-12-28T23:39:27.825Z,100018.13
2022-12-28T23:43:29.387Z,100013.88
2022-12-28T23:47:31.206Z,100013.09
2022-12-28T23:51:32.827Z,100009.06
2022-12-28T23:55:35.606Z,100016.16
2022-12-28T23:59:37.192Z,100007.78
